createdAt,value
2022-10-29T00:00:59.794Z,25.63
2022-10-29T00:02:02.244Z,25.77
2022-10-29T00:03:08.266Z,24.83
2022-10-29T00:04:12.361Z,28.35
2022-10-29T00:05:15.541Z,26.17
2022-10-29T00:06:18.501Z,29.40
2022-10-29T00:07:24.359Z,25.88
2022-10-29T00:08:30.046Z,27.20
2022-10-29T00:09:33.185Z,24.85
2022-10-29T00:10:35.563Z,26.98
2022-10-29T00:11:38.229Z,22.60
2022-10-29T00:12:40.920Z,22.08
2022-10-29T00:14:03.228Z,22.83
2022-10-29T00:15:15.236Z,20.42
2022-10-29T00:16:21.099Z,25.73
2022-10-29T00:17:24.418Z,24.92
2022-10-29T00:18:30.309Z,26.38
2022-10-29T00:19:42.201Z,23.27
2022-10-29T00:20:50.931Z,24.00
2022-10-29T00:23:24.785Z,23.90
2022-10-29T00:24:37.068Z,22.27
2022-10-29T00:26:12.012Z,21.52
2022-10-29T00:27:22.167Z,22.75
2022-10-29T00:28:32.448Z,21.08
2022-10-29T00:29:39.073Z,24.70
2022-10-29T00:30:42.375Z,21.45
2022-10-29T00:31:46.410Z,23.13
2022-10-29T00:32:48.513Z,22.42
2022-10-29T00:33:53.354Z,22.00
2022-10-29T00:34:55.307Z,21.95
2022-10-29T00:36:13.813Z,19.70
2022-10-29T00:38:39.534Z,22.05
2022-10-29T00:39:49.143Z,23.40
2022-10-29T00:41:12.853Z,20.90
2022-10-29T00:42:17.515Z,21.05
2022-10-29T00:43:29.279Z,21.33
2022-10-29T00:44:37.868Z,24.42
2022-10-29T00:46:01.744Z,20.48
2022-10-29T00:47:20.446Z,25.70
2022-10-29T00:48:26.761Z,18.27
2022-10-29T00:49:37.244Z,19.98
2022-10-29T00:52:15.462Z,17.33
2022-10-29T00:53:27.092Z,15.75
2022-10-29T00:54:42.586Z,16.63
2022-10-29T00:55:53.746Z,18.67
2022-10-29T00:57:19.049Z,18.75
2022-10-29T00:58:21.859Z,20.58
2022-10-29T00:59:26.943Z,23.70
2022-10-29T01:00:33.713Z,18.98
2022-10-29T01:01:37.896Z,21.55
2022-10-29T01:02:43.070Z,21.80
2022-10-29T01:03:47.632Z,23.88
2022-10-29T01:04:51.280Z,21.00
2022-10-29T01:05:55.195Z,20.90
2022-10-29T01:07:11.486Z,24.33
2022-10-29T01:08:18.511Z,23.48
2022-10-29T01:09:30.409Z,23.27
2022-10-29T01:11:09.661Z,19.70
2022-10-29T01:12:24.644Z,20.00
2022-10-29T01:13:49.115Z,22.40
2022-10-29T01:14:58.445Z,19.38
2022-10-29T01:16:27.354Z,20.90
2022-10-29T01:17:45.425Z,21.23
2022-10-29T01:19:24.903Z,21.23
2022-10-29T01:20:49.793Z,21.20
2022-10-29T01:22:02.521Z,22.23
2022-10-29T01:23:25.313Z,23.30
2022-10-29T01:25:04.036Z,23.42
2022-10-29T01:26:36.360Z,22.27
2022-10-29T01:27:52.109Z,21.42
2022-10-29T01:29:58.464Z,27.65
2022-10-29T01:33:05.043Z,27.77
2022-10-29T01:34:31.369Z,20.25
2022-10-29T01:36:01.448Z,23.58
2022-10-29T01:37:21.421Z,24.77
2022-10-29T01:38:36.135Z,23.23
2022-10-29T01:40:06.730Z,21.77
2022-10-29T01:41:37.991Z,23.35
2022-10-29T01:44:46.171Z,26.83
2022-10-29T01:46:10.218Z,26.23
2022-10-29T01:47:21.144Z,23.05
2022-10-29T01:48:53.741Z,23.05
2022-10-29T01:50:06.556Z,23.15
2022-10-29T01:51:19.600Z,20.88
2022-10-29T01:52:33.548Z,23.67
2022-10-29T01:53:38.496Z,22.77
2022-10-29T01:54:57.818Z,21.85
2022-10-29T01:56:12.065Z,19.73
2022-10-29T01:58:08.457Z,22.42
2022-10-29T01:59:35.606Z,22.10
2022-10-29T02:01:12.633Z,21.67
2022-10-29T02:02:48.099Z,22.48
2022-10-29T02:04:27.404Z,20.05
2022-10-29T02:05:37.788Z,22.10
2022-10-29T02:07:05.308Z,26.25
2022-10-29T02:08:33.318Z,23.33
2022-10-29T02:10:06.354Z,24.30
2022-10-29T02:11:32.297Z,20.08
2022-10-29T02:12:53.651Z,21.40
2022-10-29T02:14:04.388Z,20.45
2022-10-29T02:15:49.834Z,26.83
2022-10-29T02:16:54.610Z,26.80
2022-10-29T02:18:04.841Z,23.23
2022-10-29T02:19:07.433Z,21.73
2022-10-29T02:20:15.755Z,19.27
2022-10-29T02:21:20.289Z,22.10
2022-10-29T02:22:23.206Z,22.92
2022-10-29T02:23:25.560Z,22.98
2022-10-29T02:24:27.913Z,22.10
2022-10-29T02:25:31.833Z,20.80
2022-10-29T02:26:36.672Z,24.73
2022-10-29T02:27:40.896Z,21.63
2022-10-29T02:28:44.938Z,21.85
2022-10-29T02:29:49.413Z,21.48
2022-10-29T02:31:03.569Z,19.65
2022-10-29T02:32:11.350Z,22.70
2022-10-29T02:33:14.527Z,22.17
2022-10-29T02:34:16.894Z,20.85
2022-10-29T02:35:19.013Z,23.67
2022-10-29T02:36:26.766Z,21.63
2022-10-29T02:37:38.489Z,24.02
2022-10-29T02:38:44.139Z,23.70
2022-10-29T02:39:47.133Z,24.70
2022-10-29T02:40:53.452Z,21.92
2022-10-29T02:42:01.255Z,20.02
2022-10-29T02:43:05.981Z,23.55
2022-10-29T02:44:13.446Z,22.45
2022-10-29T02:45:28.109Z,21.42
2022-10-29T02:46:49.864Z,22.88
2022-10-29T02:47:53.008Z,21.45
2022-10-29T02:48:57.861Z,20.77
2022-10-29T02:50:03.142Z,24.63
2022-10-29T02:51:10.842Z,20.48
2022-10-29T02:52:19.145Z,23.20
2022-10-29T02:53:36.630Z,19.00
2022-10-29T02:54:40.626Z,20.70
2022-10-29T02:55:49.226Z,21.52
2022-10-29T02:57:00.955Z,22.05
2022-10-29T02:58:09.178Z,23.25
2022-10-29T02:59:25.451Z,19.15
2022-10-29T03:00:28.188Z,23.23
2022-10-29T03:01:32.532Z,23.60
2022-10-29T03:03:02.433Z,23.98
2022-10-29T03:04:11.581Z,26.50
2022-10-29T03:05:20.661Z,20.58
2022-10-29T03:06:39.729Z,22.77
2022-10-29T03:09:15.400Z,28.52
2022-10-29T03:11:53.397Z,28.00
2022-10-29T03:13:07.930Z,24.08
2022-10-29T03:14:30.461Z,26.38
2022-10-29T03:15:40.193Z,27.35
2022-10-29T03:16:48.988Z,22.73
2022-10-29T03:18:04.881Z,25.45
2022-10-29T03:20:31.971Z,24.98
2022-10-29T03:21:43.290Z,24.35
2022-10-29T03:22:50.723Z,25.55
2022-10-29T03:25:16.167Z,26.55
2022-10-29T03:26:27.977Z,27.00
2022-10-29T03:27:49.156Z,23.90
2022-10-29T03:29:02.394Z,24.40
2022-10-29T03:30:24.914Z,26.33
2022-10-29T03:31:36.677Z,24.83
2022-10-29T03:32:48.278Z,22.83
2022-10-29T03:33:51.028Z,26.75
2022-10-29T03:35:02.684Z,27.80
2022-10-29T03:36:08.777Z,26.70
2022-10-29T03:37:18.788Z,27.08
2022-10-29T03:38:27.877Z,30.48
2022-10-29T03:39:41.982Z,31.50
2022-10-29T03:40:52.782Z,28.38
2022-10-29T03:42:01.750Z,28.73
2022-10-29T03:43:05.939Z,28.17
2022-10-29T03:44:15.440Z,28.50
2022-10-29T03:45:18.840Z,29.80
2022-10-29T03:46:21.423Z,30.30
2022-10-29T03:47:23.528Z,33.13
2022-10-29T03:48:26.655Z,31.95
2022-10-29T03:49:30.840Z,32.13
2022-10-29T03:50:37.397Z,31.70
2022-10-29T03:51:47.319Z,38.53
2022-10-29T03:52:59.090Z,27.88
2022-10-29T03:54:07.143Z,37.65
2022-10-29T03:55:12.853Z,33.72
2022-10-29T03:56:33.580Z,32.33
2022-10-29T03:57:36.417Z,27.98
2022-10-29T03:58:50.266Z,34.75
2022-10-29T03:59:56.208Z,30.45
2022-10-29T04:01:05.089Z,30.17
2022-10-29T04:02:17.690Z,30.80
2022-10-29T04:03:23.027Z,27.73
2022-10-29T04:04:28.560Z,29.52
2022-10-29T04:05:51.235Z,26.70
2022-10-29T04:07:08.940Z,28.50
2022-10-29T04:08:27.659Z,30.63
2022-10-29T04:09:31.359Z,34.90
2022-10-29T04:10:38.370Z,30.88
2022-10-29T04:11:49.813Z,32.90
2022-10-29T04:12:53.122Z,31.90
2022-10-29T04:13:57.791Z,26.92
2022-10-29T04:15:02.140Z,33.47
2022-10-29T04:16:09.974Z,31.77
2022-10-29T04:17:16.634Z,32.53
2022-10-29T04:18:28.122Z,26.67
2022-10-29T04:28:41.769Z,29.27
2022-10-29T04:29:25.082Z,33.88
2022-10-29T04:30:50.725Z,35.38
2022-10-29T04:31:57.483Z,29.92
2022-10-29T04:33:05.430Z,26.33
2022-10-29T04:34:09.071Z,28.75
2022-10-29T04:35:12.064Z,30.98
2022-10-29T04:36:21.924Z,28.60
2022-10-29T04:37:31.080Z,30.00
2022-10-29T04:38:34.566Z,24.60
2022-10-29T04:39:43.090Z,26.95
2022-10-29T04:40:46.170Z,28.60
2022-10-29T04:41:52.141Z,29.48
2022-10-29T04:42:55.714Z,28.77
2022-10-29T04:44:00.494Z,25.23
2022-10-29T04:46:29.515Z,25.50
2022-10-29T04:47:47.716Z,25.67
2022-10-29T04:49:07.609Z,22.65
2022-10-29T04:50:13.665Z,26.27
2022-10-29T04:51:29.231Z,25.52
2022-10-29T04:52:40.131Z,21.50
2022-10-29T04:54:00.514Z,25.77
2022-10-29T04:55:03.803Z,24.30
2022-10-29T04:56:24.987Z,23.00
2022-10-29T04:57:28.115Z,20.30
2022-10-29T04:58:46.847Z,23.52
2022-10-29T05:00:16.220Z,29.95
2022-10-29T05:01:48.013Z,23.48
2022-10-29T05:06:29.039Z,28.42
2022-10-29T05:07:55.714Z,23.95
2022-10-29T05:09:10.163Z,26.02
2022-10-29T05:10:35.869Z,23.80
2022-10-29T05:11:43.224Z,25.60
2022-10-29T05:12:51.513Z,22.00
2022-10-29T05:14:04.060Z,19.35
2022-10-29T05:15:08.410Z,19.75
2022-10-29T05:16:16.413Z,24.98
2022-10-29T05:17:45.438Z,22.70
2022-10-29T05:18:49.577Z,20.30
2022-10-29T05:19:58.451Z,21.75
2022-10-29T05:21:04.759Z,25.02
2022-10-29T05:22:12.436Z,18.65
2022-10-29T05:23:17.434Z,21.50
2022-10-29T05:24:25.000Z,19.80
2022-10-29T05:25:30.706Z,20.25
2022-10-29T05:26:46.639Z,16.40
2022-10-29T05:28:05.656Z,16.98
2022-10-29T05:29:18.942Z,23.27
2022-10-29T05:30:25.093Z,20.33
2022-10-29T05:31:34.906Z,16.83
2022-10-29T05:32:49.327Z,24.05
2022-10-29T05:33:55.486Z,21.15
2022-10-29T05:34:58.309Z,20.38
2022-10-29T05:36:02.779Z,22.70
2022-10-29T05:37:05.053Z,22.77
2022-10-29T05:38:09.684Z,19.00
2022-10-29T05:39:14.045Z,19.13
2022-10-29T05:40:28.568Z,22.00
2022-10-29T05:41:31.070Z,24.70
2022-10-29T05:42:43.653Z,31.98
2022-10-29T05:44:01.926Z,22.80
2022-10-29T05:45:16.814Z,19.75
2022-10-29T05:46:19.185Z,26.83
2022-10-29T05:47:24.999Z,25.30
2022-10-29T05:48:29.979Z,26.30
2022-10-29T05:49:33.962Z,28.52
2022-10-29T05:50:37.457Z,35.15
2022-10-29T05:51:42.432Z,32.30
2022-10-29T05:52:58.643Z,31.27
2022-10-29T05:54:04.537Z,34.80
2022-10-29T05:55:15.432Z,28.52
2022-10-29T05:56:21.321Z,29.80
2022-10-29T05:57:27.801Z,30.83
2022-10-29T05:58:33.483Z,31.40
2022-10-29T05:59:38.204Z,29.67
2022-10-29T06:00:53.024Z,33.65
2022-10-29T06:01:55.773Z,35.10
2022-10-29T06:03:00.596Z,33.90
2022-10-29T06:04:02.907Z,34.58
2022-10-29T06:05:05.514Z,35.78
2022-10-29T06:06:09.083Z,32.58
2022-10-29T06:07:11.343Z,28.90
2022-10-29T06:08:16.085Z,26.35
2022-10-29T06:09:25.512Z,33.75
2022-10-29T06:10:30.184Z,33.83
2022-10-29T06:11:36.963Z,30.80
2022-10-29T06:12:41.307Z,30.05
2022-10-29T06:13:43.644Z,32.97
2022-10-29T06:14:46.217Z,33.92
2022-10-29T06:16:06.600Z,35.10
2022-10-29T06:17:13.381Z,39.72
2022-10-29T06:18:17.053Z,36.58
2022-10-29T06:19:27.058Z,30.17
2022-10-29T06:20:34.099Z,27.00
2022-10-29T06:21:41.821Z,29.10
2022-10-29T06:22:46.660Z,27.90
2022-10-29T06:24:00.990Z,29.80
2022-10-29T06:25:06.628Z,29.27
2022-10-29T06:26:15.535Z,31.55
2022-10-29T06:27:23.011Z,24.33
2022-10-29T06:28:40.897Z,27.77
2022-10-29T06:29:47.243Z,30.42
2022-10-29T06:30:50.545Z,30.85
2022-10-29T06:31:53.489Z,28.98
2022-10-29T06:33:00.506Z,32.03
2022-10-29T06:34:06.697Z,32.13
2022-10-29T06:35:12.487Z,33.35
2022-10-29T06:36:14.893Z,29.83
2022-10-29T06:37:19.083Z,31.20
2022-10-29T06:38:22.173Z,27.85
2022-10-29T06:39:24.353Z,28.75
2022-10-29T06:40:26.756Z,27.15
2022-10-29T06:41:34.486Z,32.53
2022-10-29T06:42:38.261Z,29.67
2022-10-29T06:43:45.257Z,27.20
2022-10-29T06:44:50.396Z,32.90
2022-10-29T06:45:52.865Z,34.92
2022-10-29T06:46:55.263Z,33.42
2022-10-29T06:47:57.824Z,39.25
2022-10-29T06:49:10.024Z,34.83
2022-10-29T06:50:35.330Z,36.92
2022-10-29T06:51:38.722Z,37.08
2022-10-29T06:52:42.058Z,34.08
2022-10-29T06:53:46.316Z,37.00
2022-10-29T06:55:00.361Z,37.05
2022-10-29T06:56:03.725Z,40.22
2022-10-29T06:57:05.856Z,41.33
2022-10-29T06:58:19.148Z,40.85
2022-10-29T06:59:25.144Z,37.85
2022-10-29T07:00:37.062Z,36.75
2022-10-29T07:01:41.601Z,38.55
2022-10-29T07:02:48.586Z,36.90
2022-10-29T07:03:56.970Z,39.47
2022-10-29T07:05:02.183Z,41.13
2022-10-29T07:06:07.772Z,44.92
2022-10-29T07:07:17.600Z,43.90
2022-10-29T07:08:29.565Z,49.40
2022-10-29T07:09:38.773Z,38.42
2022-10-29T07:10:41.383Z,45.22
2022-10-29T07:11:45.077Z,40.67
2022-10-29T07:12:52.881Z,48.33
2022-10-29T07:13:57.335Z,44.28
2022-10-29T07:14:59.153Z,43.35
2022-10-29T07:16:04.906Z,45.25
2022-10-29T07:17:07.625Z,44.45
2022-10-29T07:18:13.325Z,46.53
2022-10-29T07:19:16.489Z,40.92
2022-10-29T07:20:19.253Z,41.28
2022-10-29T07:21:21.638Z,43.28
2022-10-29T07:22:23.744Z,49.35
2022-10-29T07:24:00.142Z,38.58
2022-10-29T07:25:23.415Z,36.97
2022-10-29T07:26:32.529Z,43.15
2022-10-29T07:27:43.767Z,42.28
2022-10-29T07:29:07.720Z,38.35
2022-10-29T07:30:21.171Z,47.38
2022-10-29T07:31:34.170Z,45.30
2022-10-29T07:33:01.568Z,46.70
2022-10-29T07:34:16.346Z,42.05
2022-10-29T07:35:24.435Z,37.22
2022-10-29T07:36:37.632Z,45.83
2022-10-29T07:38:10.870Z,43.55
2022-10-29T07:39:20.258Z,44.75
2022-10-29T07:40:47.259Z,41.28
2022-10-29T07:41:56.716Z,43.90
2022-10-29T07:43:12.618Z,43.83
2022-10-29T07:44:14.847Z,43.58
2022-10-29T07:45:18.121Z,44.15
2022-10-29T07:46:23.111Z,40.80
2022-10-29T07:47:25.239Z,41.50
2022-10-29T07:48:27.329Z,41.20
2022-10-29T07:49:32.330Z,39.30
2022-10-29T07:50:34.553Z,38.92
2022-10-29T07:51:40.293Z,44.13
2022-10-29T07:52:45.418Z,40.28
2022-10-29T07:53:48.117Z,46.10
2022-10-29T07:54:50.625Z,34.95
2022-10-29T07:55:55.903Z,32.80
2022-10-29T07:56:57.961Z,36.97
2022-10-29T07:58:03.501Z,36.85
2022-10-29T07:59:06.283Z,33.85
2022-10-29T08:00:09.265Z,29.67
2022-10-29T08:01:11.613Z,32.67
2022-10-29T08:02:14.538Z,33.55
2022-10-29T08:03:17.383Z,35.20
2022-10-29T08:04:20.526Z,30.17
2022-10-29T08:05:25.027Z,30.00
2022-10-29T08:06:27.235Z,27.38
2022-10-29T08:07:31.642Z,26.85
2022-10-29T08:08:37.003Z,27.95
2022-10-29T08:09:39.124Z,28.85
2022-10-29T08:10:41.451Z,30.50
2022-10-29T08:12:54.389Z,33.17
2022-10-29T08:13:57.416Z,30.00
2022-10-29T08:15:00.741Z,31.10
2022-10-29T08:16:04.912Z,28.15
2022-10-29T08:17:07.181Z,29.02
2022-10-29T08:18:16.476Z,26.95
2022-10-29T08:19:20.424Z,30.83
2022-10-29T08:20:25.168Z,29.42
2022-10-29T08:21:27.671Z,30.08
2022-10-29T08:22:34.150Z,23.58
2022-10-29T08:23:38.546Z,21.42
2022-10-29T08:24:42.251Z,27.95
2022-10-29T08:25:45.841Z,24.45
2022-10-29T08:26:59.967Z,22.35
2022-10-29T08:28:12.039Z,26.05
2022-10-29T08:29:19.604Z,22.77
2022-10-29T08:30:21.887Z,22.70
2022-10-29T08:31:24.359Z,27.77
2022-10-29T08:32:27.828Z,34.60
2022-10-29T08:33:31.155Z,37.85
2022-10-29T08:34:34.397Z,36.95
2022-10-29T08:35:42.118Z,31.80
2022-10-29T08:36:47.876Z,30.92
2022-10-29T08:37:50.633Z,28.20
2022-10-29T08:38:53.792Z,37.30
2022-10-29T08:39:56.234Z,28.15
2022-10-29T08:41:02.116Z,35.20
2022-10-29T08:42:36.401Z,32.88
2022-10-29T08:44:25.121Z,41.55
2022-10-29T08:45:47.962Z,45.40
2022-10-29T08:47:14.056Z,37.38
2022-10-29T08:48:47.323Z,42.35
2022-10-29T08:50:08.149Z,48.40
2022-10-29T08:51:44.422Z,50.92
2022-10-29T08:52:53.415Z,53.08
2022-10-29T08:55:38.160Z,46.33
2022-10-29T08:56:44.450Z,51.20
2022-10-29T08:58:03.528Z,51.50
2022-10-29T08:59:17.784Z,49.53
2022-10-29T09:00:27.124Z,60.03
2022-10-29T09:01:31.410Z,53.92
2022-10-29T09:02:36.579Z,53.53
2022-10-29T09:03:38.779Z,53.25
2022-10-29T09:04:40.587Z,52.65
2022-10-29T09:06:12.397Z,52.83
2022-10-29T09:07:48.004Z,54.10
2022-10-29T09:09:01.877Z,55.05
2022-10-29T09:10:36.978Z,56.83
2022-10-29T09:11:56.290Z,55.67
2022-10-29T09:13:10.314Z,72.82
2022-10-29T09:14:33.410Z,60.47
2022-10-29T09:16:01.754Z,60.50
2022-10-29T09:17:29.736Z,65.03
2022-10-29T09:18:57.958Z,47.88
2022-10-29T09:20:23.564Z,58.50
2022-10-29T09:21:52.927Z,56.28
2022-10-29T09:23:09.508Z,54.38
2022-10-29T09:24:31.607Z,57.35
2022-10-29T09:25:45.815Z,51.90
2022-10-29T09:26:59.668Z,55.90
2022-10-29T09:28:27.706Z,59.92
2022-10-29T09:29:59.881Z,61.53
2022-10-29T09:31:17.161Z,60.42
2022-10-29T09:32:42.395Z,59.60
2022-10-29T09:33:47.967Z,57.72
2022-10-29T09:34:57.230Z,55.13
2022-10-29T09:36:00.522Z,61.22
2022-10-29T09:37:04.944Z,52.13
2022-10-29T09:38:27.981Z,49.85
2022-10-29T09:39:35.298Z,61.08
2022-10-29T09:40:40.366Z,57.13
2022-10-29T09:41:44.493Z,59.45
2022-10-29T09:42:48.082Z,56.65
2022-10-29T09:44:14.004Z,65.03
2022-10-29T09:45:22.635Z,53.30
2022-10-29T09:46:46.149Z,54.42
2022-10-29T09:47:50.396Z,55.75
2022-10-29T09:49:21.184Z,52.72
2022-10-29T09:50:47.008Z,51.78
2022-10-29T09:52:07.902Z,52.20
2022-10-29T09:53:10.060Z,53.25
2022-10-29T09:54:12.302Z,47.72
2022-10-29T09:55:25.500Z,50.47
2022-10-29T09:56:27.488Z,45.83
2022-10-29T09:57:32.029Z,46.92
2022-10-29T09:58:38.987Z,38.25
2022-10-29T10:00:10.673Z,45.45
2022-10-29T10:02:37.989Z,46.85
2022-10-29T10:03:47.982Z,44.17
2022-10-29T10:04:56.581Z,47.50
2022-10-29T10:05:59.957Z,45.70
2022-10-29T10:07:05.956Z,41.30
2022-10-29T10:08:15.238Z,47.00
2022-10-29T10:09:17.496Z,44.60
2022-10-29T10:10:24.192Z,45.55
2022-10-29T10:11:38.742Z,40.90
2022-10-29T10:12:44.795Z,44.70
2022-10-29T10:14:00.674Z,38.85
2022-10-29T10:15:17.099Z,37.72
2022-10-29T10:16:27.790Z,39.83
2022-10-29T10:17:51.058Z,38.20
2022-10-29T10:18:53.004Z,37.33
2022-10-29T10:19:54.952Z,38.42
2022-10-29T10:21:14.843Z,42.60
2022-10-29T10:22:19.667Z,42.03
2022-10-29T10:23:23.545Z,39.33
2022-10-29T10:24:34.092Z,41.00
2022-10-29T10:25:37.557Z,42.58
2022-10-29T10:26:43.441Z,37.83
2022-10-29T10:27:45.323Z,41.13
2022-10-29T10:29:03.371Z,38.47
2022-10-29T10:30:05.065Z,38.78
2022-10-29T10:31:16.645Z,40.65
2022-10-29T10:32:18.670Z,38.25
2022-10-29T10:33:25.750Z,36.13
2022-10-29T10:34:38.662Z,37.03
2022-10-29T10:35:40.959Z,41.65
2022-10-29T10:37:04.487Z,35.17
2022-10-29T10:38:10.015Z,34.55
2022-10-29T10:39:44.009Z,35.63
2022-10-29T10:41:01.052Z,36.33
2022-10-29T10:42:18.343Z,36.25
2022-10-29T10:43:23.485Z,40.42
2022-10-29T10:44:26.572Z,39.58
2022-10-29T10:45:36.286Z,34.92
2022-10-29T10:46:42.200Z,37.85
2022-10-29T10:47:49.049Z,40.03
2022-10-29T10:49:03.373Z,44.88
2022-10-29T10:50:32.176Z,31.20
2022-10-29T10:51:37.717Z,34.35
2022-10-29T10:52:40.710Z,32.78
2022-10-29T10:53:42.631Z,39.70
2022-10-29T10:55:34.157Z,34.22
2022-10-29T10:56:58.438Z,31.67
2022-10-29T10:58:11.732Z,36.40
2022-10-29T10:59:17.118Z,41.33
2022-10-29T11:00:21.001Z,35.17
2022-10-29T11:01:34.330Z,38.72
2022-10-29T11:03:00.416Z,41.63
2022-10-29T11:04:20.273Z,37.30
2022-10-29T11:05:34.318Z,35.92
2022-10-29T11:06:40.851Z,39.70
2022-10-29T11:07:48.938Z,33.72
2022-10-29T11:09:04.975Z,35.67
2022-10-29T11:10:12.118Z,33.92
2022-10-29T11:11:16.658Z,35.50
2022-10-29T11:12:57.107Z,37.63
2022-10-29T11:14:06.849Z,38.58
2022-10-29T11:15:12.061Z,42.83
2022-10-29T11:16:28.066Z,36.90
2022-10-29T11:17:37.497Z,41.70
2022-10-29T11:18:50.261Z,41.40
2022-10-29T11:19:55.132Z,39.13
2022-10-29T11:21:15.500Z,36.40
2022-10-29T11:22:34.198Z,42.05
2022-10-29T11:24:21.125Z,39.00
2022-10-29T11:25:43.372Z,39.83
2022-10-29T11:26:51.563Z,40.28
2022-10-29T11:27:58.789Z,40.55
2022-10-29T11:29:05.070Z,47.05
2022-10-29T11:30:12.329Z,37.42
2022-10-29T11:31:29.382Z,37.28
2022-10-29T11:32:45.378Z,38.65
2022-10-29T11:34:14.066Z,40.22
2022-10-29T11:35:19.259Z,43.88
2022-10-29T11:36:24.267Z,39.10
2022-10-29T11:37:51.380Z,34.95
2022-10-29T11:39:13.294Z,46.40
2022-10-29T11:40:36.945Z,33.33
2022-10-29T11:41:47.750Z,36.85
2022-10-29T11:42:49.951Z,37.08
2022-10-29T11:43:52.174Z,36.10
2022-10-29T11:44:54.521Z,40.75
2022-10-29T11:46:18.124Z,37.08
2022-10-29T11:48:09.197Z,37.47
2022-10-29T11:49:35.040Z,34.63
2022-10-29T11:51:11.206Z,37.65
2022-10-29T11:52:16.206Z,35.25
2022-10-29T11:53:58.241Z,35.00
2022-10-29T11:55:19.489Z,29.38
2022-10-29T11:56:39.823Z,33.63
2022-10-29T11:57:59.227Z,30.98
2022-10-29T11:59:04.429Z,28.70
2022-10-29T12:00:25.877Z,32.95
2022-10-29T12:01:39.837Z,27.23
2022-10-29T12:02:47.610Z,29.48
2022-10-29T12:05:38.563Z,27.42
2022-10-29T12:06:55.176Z,26.70
2022-10-29T12:08:13.529Z,30.65
2022-10-29T12:09:42.753Z,28.02
2022-10-29T12:10:53.396Z,25.17
2022-10-29T12:12:09.155Z,30.20
2022-10-29T12:13:38.933Z,27.23
2022-10-29T12:14:55.188Z,31.63
2022-10-29T12:16:26.332Z,27.65
2022-10-29T12:17:36.872Z,25.08
2022-10-29T12:19:00.549Z,22.40
2022-10-29T12:20:33.267Z,28.02
2022-10-29T12:21:47.465Z,22.13
2022-10-29T12:23:08.001Z,24.17
2022-10-29T12:24:28.584Z,24.83
2022-10-29T12:25:30.424Z,25.17
2022-10-29T12:26:43.395Z,23.30
2022-10-29T12:27:49.553Z,23.35
2022-10-29T12:29:01.256Z,23.15
2022-10-29T12:30:06.562Z,26.75
2022-10-29T12:31:20.221Z,25.02
2022-10-29T12:32:38.023Z,23.10
2022-10-29T12:33:55.860Z,22.60
2022-10-29T12:35:15.371Z,24.38
2022-10-29T12:36:29.057Z,20.17
2022-10-29T12:38:07.014Z,25.20
2022-10-29T12:39:32.400Z,23.05
2022-10-29T12:40:37.958Z,22.50
2022-10-29T12:41:45.700Z,19.27
2022-10-29T12:42:49.983Z,19.55
2022-10-29T12:43:58.128Z,23.48
2022-10-29T12:45:29.680Z,17.75
2022-10-29T12:46:40.620Z,20.67
2022-10-29T12:48:17.929Z,19.38
2022-10-29T12:49:56.378Z,22.13
2022-10-29T12:51:17.880Z,15.57
2022-10-29T12:52:40.428Z,16.40
2022-10-29T12:54:16.083Z,20.02
2022-10-29T12:55:19.130Z,12.90
2022-10-29T12:56:21.519Z,16.13
2022-10-29T12:57:30.782Z,15.32
2022-10-29T12:58:49.975Z,15.35
2022-10-29T12:59:52.104Z,18.15
2022-10-29T13:00:54.275Z,15.63
2022-10-29T13:02:10.953Z,15.48
2022-10-29T13:03:52.626Z,16.33
2022-10-29T13:05:37.308Z,13.27
2022-10-29T13:06:42.033Z,15.73
2022-10-29T13:07:47.211Z,11.35
2022-10-29T13:08:58.122Z,12.10
2022-10-29T13:10:25.203Z,13.55
2022-10-29T13:11:48.586Z,11.88
2022-10-29T13:12:59.138Z,12.70
2022-10-29T13:14:01.971Z,13.23
2022-10-29T13:15:10.497Z,13.88
2022-10-29T13:16:22.546Z,12.23
2022-10-29T13:17:38.915Z,10.25
2022-10-29T13:19:02.454Z,9.02
2022-10-29T13:20:25.370Z,8.52
2022-10-29T13:21:55.279Z,7.15
2022-10-29T13:22:58.869Z,9.35
2022-10-29T13:24:16.879Z,10.32
2022-10-29T13:25:46.459Z,9.68
2022-10-29T13:27:23.549Z,9.50
2022-10-29T13:28:25.395Z,6.00
2022-10-29T13:30:11.227Z,7.35
2022-10-29T13:31:12.946Z,7.82
2022-10-29T13:32:35.003Z,7.43
2022-10-29T13:33:36.736Z,6.97
2022-10-29T13:34:51.791Z,6.95
2022-10-29T13:35:57.207Z,7.22
2022-10-29T13:37:45.187Z,6.50
2022-10-29T13:39:04.330Z,7.05
2022-10-29T13:40:26.188Z,14.13
2022-10-29T13:41:29.439Z,6.32
2022-10-29T13:42:31.222Z,7.15
2022-10-29T13:43:34.007Z,5.30
2022-10-29T13:44:38.306Z,6.22
2022-10-29T13:45:43.652Z,8.20
2022-10-29T13:47:01.649Z,5.85
2022-10-29T13:48:13.226Z,8.20
2022-10-29T13:49:40.853Z,9.07
2022-10-29T13:50:43.218Z,8.82
2022-10-29T13:51:51.298Z,7.22
2022-10-29T13:52:56.715Z,6.05
2022-10-29T13:54:07.784Z,8.50
2022-10-29T13:55:14.069Z,5.60
2022-10-29T13:56:27.223Z,8.15
2022-10-29T13:58:06.260Z,7.50
2022-10-29T13:59:19.561Z,9.70
2022-10-29T14:00:22.020Z,7.40
2022-10-29T14:01:25.044Z,8.52
2022-10-29T14:02:42.167Z,7.18
2022-10-29T14:04:06.558Z,7.30
2022-10-29T14:05:25.812Z,10.70
2022-10-29T14:06:34.831Z,8.30
2022-10-29T14:07:51.906Z,8.10
2022-10-29T14:09:22.284Z,8.70
2022-10-29T14:10:34.961Z,10.35
2022-10-29T14:11:41.909Z,6.82
2022-10-29T14:12:45.495Z,10.35
2022-10-29T14:13:50.249Z,7.55
2022-10-29T14:15:06.633Z,8.75
2022-10-29T14:16:12.189Z,7.70
2022-10-29T14:17:18.858Z,11.07
2022-10-29T14:18:27.489Z,9.15
2022-10-29T14:19:29.204Z,8.10
2022-10-29T14:20:31.089Z,9.85
2022-10-29T14:21:39.103Z,9.70
2022-10-29T14:22:41.722Z,10.10
2022-10-29T14:23:55.352Z,9.02
2022-10-29T14:24:57.590Z,8.25
2022-10-29T14:26:03.971Z,7.88
2022-10-29T14:27:07.656Z,6.75
2022-10-29T14:28:23.600Z,5.32
2022-10-29T14:29:26.177Z,6.00
2022-10-29T14:30:28.016Z,12.25
2022-10-29T14:31:29.737Z,11.13
2022-10-29T14:32:31.477Z,8.82
2022-10-29T14:33:36.028Z,9.95
2022-10-29T14:34:38.227Z,7.35
2022-10-29T14:35:40.268Z,9.15
2022-10-29T14:36:46.294Z,7.30
2022-10-29T14:37:48.852Z,10.07
2022-10-29T14:39:02.885Z,9.57
2022-10-29T14:40:23.245Z,9.25
2022-10-29T14:41:27.312Z,10.20
2022-10-29T14:42:38.742Z,7.82
2022-10-29T14:43:41.189Z,6.55
2022-10-29T14:44:48.922Z,7.93
2022-10-29T14:45:50.953Z,10.80
2022-10-29T14:47:07.592Z,8.57
2022-10-29T14:48:16.183Z,8.35
2022-10-29T14:49:25.398Z,7.70
2022-10-29T14:50:29.481Z,11.20
2022-10-29T14:51:39.604Z,10.30
2022-10-29T14:52:48.538Z,10.98
2022-10-29T14:53:57.488Z,8.95
2022-10-29T14:55:08.695Z,7.95
2022-10-29T14:57:20.319Z,7.30
2022-10-29T14:58:30.795Z,7.28
2022-10-29T14:59:34.519Z,6.30
2022-10-29T15:00:37.430Z,12.13
2022-10-29T15:01:49.160Z,10.75
2022-10-29T15:02:52.750Z,14.35
2022-10-29T15:04:02.139Z,7.25
2022-10-29T15:05:21.876Z,7.47
2022-10-29T15:06:28.275Z,13.73
2022-10-29T15:07:36.060Z,10.05
2022-10-29T15:08:43.175Z,8.27
2022-10-29T15:09:48.506Z,6.88
2022-10-29T15:10:51.528Z,11.85
2022-10-29T15:12:08.238Z,7.90
2022-10-29T15:13:28.644Z,10.65
2022-10-29T15:14:36.786Z,8.10
2022-10-29T15:15:38.729Z,9.13
2022-10-29T15:16:42.418Z,8.65
2022-10-29T15:18:03.985Z,8.63
2022-10-29T15:19:05.930Z,9.27
2022-10-29T15:20:38.771Z,8.35
2022-10-29T15:21:40.628Z,10.18
2022-10-29T15:22:42.804Z,10.55
2022-10-29T15:23:45.821Z,11.45
2022-10-29T15:24:52.681Z,5.72
2022-10-29T15:26:03.959Z,13.15
2022-10-29T15:27:06.482Z,12.02
2022-10-29T15:28:14.149Z,9.48
2022-10-29T15:29:25.943Z,9.70
2022-10-29T15:30:35.996Z,13.85
2022-10-29T15:31:49.713Z,13.48
2022-10-29T15:32:53.006Z,11.70
2022-10-29T15:33:58.136Z,9.15
2022-10-29T15:35:00.618Z,12.93
2022-10-29T15:36:04.425Z,11.48
2022-10-29T15:37:22.357Z,10.20
2022-10-29T15:38:30.351Z,14.93
2022-10-29T15:39:57.274Z,9.88
2022-10-29T15:41:08.294Z,9.90
2022-10-29T15:42:20.932Z,11.48
2022-10-29T15:43:29.590Z,10.60
2022-10-29T15:44:34.338Z,12.00
2022-10-29T15:45:59.116Z,10.50
2022-10-29T15:47:18.618Z,8.35
2022-10-29T15:48:26.776Z,8.77
2022-10-29T15:49:32.948Z,12.55
2022-10-29T15:51:08.600Z,12.23
2022-10-29T15:52:17.877Z,9.63
2022-10-29T15:53:25.311Z,17.38
2022-10-29T15:54:32.716Z,14.60
2022-10-29T15:55:36.869Z,10.65
2022-10-29T15:56:40.159Z,10.93
2022-10-29T15:57:44.400Z,9.32
2022-10-29T15:58:47.677Z,10.15
2022-10-29T15:59:55.332Z,9.10
2022-10-29T16:01:00.718Z,8.73